sensor_id;sensor_type;location;lat;lon;timestamp;temperature;humidity
28336;DHT22;15592;53.656;7.276;2023-12-07T00:00:28;2.90;99.90
28336;DHT22;15592;53.656;7.276;2023-12-07T00:02:53;2.90;99.90
28336;DHT22;15592;53.656;7.276;2023-12-07T00:05:19;2.80;99.90
28336;DHT22;15592;53.656;7.276;2023-12-07T00:07:44;2.80;99.90
28336;DHT22;15592;53.656;7.276;2023-12-07T00:10:10;2.80;99.90
28336;DHT22;15592;53.656;7.276;2023-12-07T00:12:35;2.80;99.90
28336;DHT22;15592;53.656;7.276;2023-12-07T00:15:01;2.80;99.90
28336;DHT22;15592;53.656;7.276;2023-12-07T00:17:28;2.80;99.90
28336;DHT22;15592;53.656;7.276;2023-12-07T00:19:53;2.80;99.90
28336;DHT22;15592;53.656;7.276;2023-12-07T00:22:20;2.80;99.90
28336;DHT22;15592;53.656;7.276;2023-12-07T00:24:46;2.70;99.90
28336;DHT22;15592;53.656;7.276;2023-12-07T00:27:12;2.70;99.90
28336;DHT22;15592;53.656;7.276;2023-12-07T00:29:38;2.70;99.90
28336;DHT22;15592;53.656;7.276;2023-12-07T00:32:04;2.70;99.90
28336;DHT22;15592;53.656;7.276;2023-12-07T00:34:30;2.80;99.90
28336;DHT22;15592;53.656;7.276;2023-12-07T00:36:55;2.80;99.90
28336;DHT22;15592;53.656;7.276;2023-12-07T00:39:21;2.80;99.90
28336;DHT22;15592;53.656;7.276;2023-12-07T00:41:46;2.80;99.90
28336;DHT22;15592;53.656;7.276;2023-12-07T00:44:16;2.80;99.90
28336;DHT22;15592;53.656;7.276;2023-12-07T00:46:41;2.70;99.90
28336;DHT22;15592;53.656;7.276;2023-12-07T00:49:07;2.60;99.90
28336;DHT22;15592;53.656;7.276;2023-12-07T00:51:32;2.60;99.90
28336;DHT22;15592;53.656;7.276;2023-12-07T00:53:58;2.60;99.90
28336;DHT22;15592;53.656;7.276;2023-12-07T00:56:24;2.60;99.90
28336;DHT22;15592;53.656;7.276;2023-12-07T00:58:50;2.60;99.90
28336;DHT22;15592;53.656;7.276;2023-12-07T01:01:16;2.60;99.90
28336;DHT22;15592;53.656;7.276;2023-12-07T01:03:41;2.60;99.90
28336;DHT22;15592;53.656;7.276;2023-12-07T01:06:07;2.60;99.90
28336;DHT22;15592;53.656;7.276;2023-12-07T01:08:33;2.60;99.90
28336;DHT22;15592;53.656;7.276;2023-12-07T01:10:58;2.60;99.90
28336;DHT22;15592;53.656;7.276;2023-12-07T01:13:24;2.50;99.90
28336;DHT22;15592;53.656;7.276;2023-12-07T01:15:50;2.60;99.90
28336;DHT22;15592;53.656;7.276;2023-12-07T01:18:16;2.60;99.90
28336;DHT22;15592;53.656;7.276;2023-12-07T01:20:42;2.50;99.90
28336;DHT22;15592;53.656;7.276;2023-12-07T01:23:07;2.50;99.90
28336;DHT22;15592;53.656;7.276;2023-12-07T01:25:36;2.60;99.90
28336;DHT22;15592;53.656;7.276;2023-12-07T01:28:01;2.50;99.90
28336;DHT22;15592;53.656;7.276;2023-12-07T01:30:27;2.50;99.90
28336;DHT22;15592;53.656;7.276;2023-12-07T01:32:53;2.50;99.90
28336;DHT22;15592;53.656;7.276;2023-12-07T01:35:18;2.50;99.90
28336;DHT22;15592;53.656;7.276;2023-12-07T01:37:44;2.50;99.90
28336;DHT22;15592;53.656;7.276;2023-12-07T01:40:10;2.50;99.90
28336;DHT22;15592;53.656;7.276;2023-12-07T01:42:38;2.40;99.90
28336;DHT22;15592;53.656;7.276;2023-12-07T01:45:05;2.40;99.90
28336;DHT22;15592;53.656;7.276;2023-12-07T01:47:31;2.50;99.90
28336;DHT22;15592;53.656;7.276;2023-12-07T01:49:58;2.50;99.90
28336;DHT22;15592;53.656;7.276;2023-12-07T01:52:27;2.50;99.90
28336;DHT22;15592;53.656;7.276;2023-12-07T01:54:54;2.50;99.90
28336;DHT22;15592;53.656;7.276;2023-12-07T01:57:20;2.50;99.90
28336;DHT22;15592;53.656;7.276;2023-12-07T01:59:46;2.50;99.90
28336;DHT22;15592;53.656;7.276;2023-12-07T02:02:12;2.50;99.90
28336;DHT22;15592;53.656;7.276;2023-12-07T02:04:38;2.50;99.90
28336;DHT22;15592;53.656;7.276;2023-12-07T02:07:04;2.50;99.90
28336;DHT22;15592;53.656;7.276;2023-12-07T02:09:30;2.50;99.90
28336;DHT22;15592;53.656;7.276;2023-12-07T02:11:56;2.50;99.90
28336;DHT22;15592;53.656;7.276;2023-12-07T02:14:23;2.50;99.90
28336;DHT22;15592;53.656;7.276;2023-12-07T02:16:53;2.50;99.90
28336;DHT22;15592;53.656;7.276;2023-12-07T02:19:49;2.50;99.90
28336;DHT22;15592;53.656;7.276;2023-12-07T02:22:40;2.50;99.90
28336;DHT22;15592;53.656;7.276;2023-12-07T02:25:09;2.50;99.90
28336;DHT22;15592;53.656;7.276;2023-12-07T02:27:42;2.60;99.90
28336;DHT22;15592;53.656;7.276;2023-12-07T02:30:12;2.50;99.90
28336;DHT22;15592;53.656;7.276;2023-12-07T02:32:39;2.50;99.90
28336;DHT22;15592;53.656;7.276;2023-12-07T02:35:06;2.50;99.90
28336;DHT22;15592;53.656;7.276;2023-12-07T02:37:51;2.50;99.90
28336;DHT22;15592;53.656;7.276;2023-12-07T02:40:19;2.50;99.90
28336;DHT22;15592;53.656;7.276;2023-12-07T02:42:46;2.50;99.90
28336;DHT22;15592;53.656;7.276;2023-12-07T02:45:12;2.50;99.90
28336;DHT22;15592;53.656;7.276;2023-12-07T02:47:38;2.40;99.90
28336;DHT22;15592;53.656;7.276;2023-12-07T02:50:05;2.40;99.90
28336;DHT22;15592;53.656;7.276;2023-12-07T02:52:31;2.30;99.90
28336;DHT22;15592;53.656;7.276;2023-12-07T02:54:57;2.30;99.90
28336;DHT22;15592;53.656;7.276;2023-12-07T02:57:23;2.30;99.90
28336;DHT22;15592;53.656;7.276;2023-12-07T02:59:48;2.30;99.90
28336;DHT22;15592;53.656;7.276;2023-12-07T03:02:14;2.20;99.90
28336;DHT22;15592;53.656;7.276;2023-12-07T03:04:39;2.20;99.90
28336;DHT22;15592;53.656;7.276;2023-12-07T03:07:05;2.20;99.90
28336;DHT22;15592;53.656;7.276;2023-12-07T03:09:31;2.20;99.90
28336;DHT22;15592;53.656;7.276;2023-12-07T03:11:56;2.10;99.90
28336;DHT22;15592;53.656;7.276;2023-12-07T03:14:22;2.10;99.90
28336;DHT22;15592;53.656;7.276;2023-12-07T03:16:47;2.10;99.90
28336;DHT22;15592;53.656;7.276;2023-12-07T03:19:13;2.10;99.90
28336;DHT22;15592;53.656;7.276;2023-12-07T03:21:40;2.10;99.90
28336;DHT22;15592;53.656;7.276;2023-12-07T03:24:06;2.10;99.90
28336;DHT22;15592;53.656;7.276;2023-12-07T03:26:33;2.10;99.90
28336;DHT22;15592;53.656;7.276;2023-12-07T03:28:58;2.10;99.90
28336;DHT22;15592;53.656;7.276;2023-12-07T03:31:24;2.10;99.90
28336;DHT22;15592;53.656;7.276;2023-12-07T03:33:49;2.10;99.90
28336;DHT22;15592;53.656;7.276;2023-12-07T03:36:15;2.10;99.90
28336;DHT22;15592;53.656;7.276;2023-12-07T03:38:42;2.10;99.90
28336;DHT22;15592;53.656;7.276;2023-12-07T03:41:08;2.10;99.90
28336;DHT22;15592;53.656;7.276;2023-12-07T03:43:33;2.10;99.90
28336;DHT22;15592;53.656;7.276;2023-12-07T03:45:59;2.10;99.90
28336;DHT22;15592;53.656;7.276;2023-12-07T03:48:25;2.10;99.90
28336;DHT22;15592;53.656;7.276;2023-12-07T03:50:50;2.10;99.90
28336;DHT22;15592;53.656;7.276;2023-12-07T03:53:16;2.10;99.90
28336;DHT22;15592;53.656;7.276;2023-12-07T03:55:42;2.10;99.90
28336;DHT22;15592;53.656;7.276;2023-12-07T03:58:07;2.10;99.90
28336;DHT22;15592;53.656;7.276;2023-12-07T04:00:33;2.00;99.90
28336;DHT22;15592;53.656;7.276;2023-12-07T04:02:58;2.00;99.90
28336;DHT22;15592;53.656;7.276;2023-12-07T04:05:24;2.00;99.90
28336;DHT22;15592;53.656;7.276;2023-12-07T04:07:50;2.00;99.90
28336;DHT22;15592;53.656;7.276;2023-12-07T04:10:15;2.10;99.90
28336;DHT22;15592;53.656;7.276;2023-12-07T04:12:41;2.00;99.90
28336;DHT22;15592;53.656;7.276;2023-12-07T04:15:07;2.10;99.90
28336;DHT22;15592;53.656;7.276;2023-12-07T04:17:33;2.10;99.90
28336;DHT22;15592;53.656;7.276;2023-12-07T04:19:58;2.00;99.90
28336;DHT22;15592;53.656;7.276;2023-12-07T04:22:24;2.00;99.90
28336;DHT22;15592;53.656;7.276;2023-12-07T04:24:49;2.00;99.90
28336;DHT22;15592;53.656;7.276;2023-12-07T04:27:15;2.00;99.90
28336;DHT22;15592;53.656;7.276;2023-12-07T04:29:41;2.00;99.90
28336;DHT22;15592;53.656;7.276;2023-12-07T04:32:07;2.10;99.90
28336;DHT22;15592;53.656;7.276;2023-12-07T04:34:33;2.10;99.90
28336;DHT22;15592;53.656;7.276;2023-12-07T04:36:59;2.10;99.90
28336;DHT22;15592;53.656;7.276;2023-12-07T04:39:24;2.10;99.90
28336;DHT22;15592;53.656;7.276;2023-12-07T04:41:50;2.10;99.90
28336;DHT22;15592;53.656;7.276;2023-12-07T04:44:16;2.10;99.90
28336;DHT22;15592;53.656;7.276;2023-12-07T04:46:42;2.10;99.90
28336;DHT22;15592;53.656;7.276;2023-12-07T04:49:08;2.10;99.90
28336;DHT22;15592;53.656;7.276;2023-12-07T04:51:33;2.20;99.90
28336;DHT22;15592;53.656;7.276;2023-12-07T04:53:59;2.20;99.90
28336;DHT22;15592;53.656;7.276;2023-12-07T04:56:25;2.20;99.90
28336;DHT22;15592;53.656;7.276;2023-12-07T04:58:50;2.20;99.90
28336;DHT22;15592;53.656;7.276;2023-12-07T05:01:16;2.30;99.90
28336;DHT22;15592;53.656;7.276;2023-12-07T05:03:42;2.30;99.90
28336;DHT22;15592;53.656;7.276;2023-12-07T05:06:07;2.30;99.90
28336;DHT22;15592;53.656;7.276;2023-12-07T05:08:33;2.30;99.90
28336;DHT22;15592;53.656;7.276;2023-12-07T05:10:58;2.30;99.90
28336;DHT22;15592;53.656;7.276;2023-12-07T05:13:24;2.30;99.90
28336;DHT22;15592;53.656;7.276;2023-12-07T05:15:50;2.30;99.90
28336;DHT22;15592;53.656;7.276;2023-12-07T05:18:15;2.30;99.90
28336;DHT22;15592;53.656;7.276;2023-12-07T05:20:41;2.40;99.90
28336;DHT22;15592;53.656;7.276;2023-12-07T05:23:08;2.30;99.90
28336;DHT22;15592;53.656;7.276;2023-12-07T05:25:34;2.30;99.90
28336;DHT22;15592;53.656;7.276;2023-12-07T05:27:59;2.30;99.90
28336;DHT22;15592;53.656;7.276;2023-12-07T05:30:25;2.30;99.90
28336;DHT22;15592;53.656;7.276;2023-12-07T05:32:50;2.30;99.90
28336;DHT22;15592;53.656;7.276;2023-12-07T05:35:16;2.40;99.90
28336;DHT22;15592;53.656;7.276;2023-12-07T05:37:42;2.30;99.90
28336;DHT22;15592;53.656;7.276;2023-12-07T05:40:08;2.30;99.90
28336;DHT22;15592;53.656;7.276;2023-12-07T05:42:34;2.20;99.90
28336;DHT22;15592;53.656;7.276;2023-12-07T05:45:00;2.20;99.90
28336;DHT22;15592;53.656;7.276;2023-12-07T05:47:26;2.20;99.90
28336;DHT22;15592;53.656;7.276;2023-12-07T05:49:52;2.20;99.90
28336;DHT22;15592;53.656;7.276;2023-12-07T05:52:18;2.10;99.90
28336;DHT22;15592;53.656;7.276;2023-12-07T05:54:43;2.10;99.90
28336;DHT22;15592;53.656;7.276;2023-12-07T05:57:12;2.00;99.90
28336;DHT22;15592;53.656;7.276;2023-12-07T05:59:39;2.00;99.90
28336;DHT22;15592;53.656;7.276;2023-12-07T06:02:04;2.00;99.90
28336;DHT22;15592;53.656;7.276;2023-12-07T06:04:30;2.00;99.90
28336;DHT22;15592;53.656;7.276;2023-12-07T06:06:56;1.90;99.90
28336;DHT22;15592;53.656;7.276;2023-12-07T06:09:22;1.90;99.90
28336;DHT22;15592;53.656;7.276;2023-12-07T06:11:47;1.90;99.90
28336;DHT22;15592;53.656;7.276;2023-12-07T06:14:13;1.90;99.90
28336;DHT22;15592;53.656;7.276;2023-12-07T06:16:39;1.90;99.90
28336;DHT22;15592;53.656;7.276;2023-12-07T06:19:04;1.90;99.90
28336;DHT22;15592;53.656;7.276;2023-12-07T06:21:30;1.90;99.90
28336;DHT22;15592;53.656;7.276;2023-12-07T06:23:56;2.00;99.90
28336;DHT22;15592;53.656;7.276;2023-12-07T06:26:22;2.00;99.90
28336;DHT22;15592;53.656;7.276;2023-12-07T06:28:48;2.00;99.90
28336;DHT22;15592;53.656;7.276;2023-12-07T06:31:13;2.00;99.90
28336;DHT22;15592;53.656;7.276;2023-12-07T06:33:45;2.00;99.90
28336;DHT22;15592;53.656;7.276;2023-12-07T06:36:11;2.00;99.90
28336;DHT22;15592;53.656;7.276;2023-12-07T06:38:36;2.00;99.90
28336;DHT22;15592;53.656;7.276;2023-12-07T06:41:03;2.10;99.90
28336;DHT22;15592;53.656;7.276;2023-12-07T06:43:29;2.10;99.90
28336;DHT22;15592;53.656;7.276;2023-12-07T06:45:55;2.10;99.90
28336;DHT22;15592;53.656;7.276;2023-12-07T06:48:21;2.10;99.90
28336;DHT22;15592;53.656;7.276;2023-12-07T06:50:46;2.20;99.90
28336;DHT22;15592;53.656;7.276;2023-12-07T06:53:13;2.20;99.90
28336;DHT22;15592;53.656;7.276;2023-12-07T06:55:39;2.30;99.90
28336;DHT22;15592;53.656;7.276;2023-12-07T06:58:06;2.30;99.90
28336;DHT22;15592;53.656;7.276;2023-12-07T07:00:32;2.30;99.90
28336;DHT22;15592;53.656;7.276;2023-12-07T07:02:58;2.40;99.90
28336;DHT22;15592;53.656;7.276;2023-12-07T07:05:23;2.40;99.90
28336;DHT22;15592;53.656;7.276;2023-12-07T07:07:49;2.40;99.90
28336;DHT22;15592;53.656;7.276;2023-12-07T07:10:16;2.40;99.90
28336;DHT22;15592;53.656;7.276;2023-12-07T07:12:42;2.50;99.90
28336;DHT22;15592;53.656;7.276;2023-12-07T07:15:08;2.40;99.90
28336;DHT22;15592;53.656;7.276;2023-12-07T07:17:34;2.40;99.90
28336;DHT22;15592;53.656;7.276;2023-12-07T07:19:59;2.40;99.90
28336;DHT22;15592;53.656;7.276;2023-12-07T07:22:25;2.40;99.90
28336;DHT22;15592;53.656;7.276;2023-12-07T07:24:51;2.40;99.90
28336;DHT22;15592;53.656;7.276;2023-12-07T07:27:17;2.40;99.90
28336;DHT22;15592;53.656;7.276;2023-12-07T07:29:43;2.40;99.90
28336;DHT22;15592;53.656;7.276;2023-12-07T07:32:09;2.40;99.90
28336;DHT22;15592;53.656;7.276;2023-12-07T07:34:35;2.50;99.90
28336;DHT22;15592;53.656;7.276;2023-12-07T07:37:01;2.50;99.90
28336;DHT22;15592;53.656;7.276;2023-12-07T07:39:28;2.50;99.90
28336;DHT22;15592;53.656;7.276;2023-12-07T07:41:54;2.40;99.90
28336;DHT22;15592;53.656;7.276;2023-12-07T07:44:19;2.50;99.90
28336;DHT22;15592;53.656;7.276;2023-12-07T07:46:45;2.50;99.90
28336;DHT22;15592;53.656;7.276;2023-12-07T07:49:11;2.50;99.90
28336;DHT22;15592;53.656;7.276;2023-12-07T07:51:37;2.50;99.90
28336;DHT22;15592;53.656;7.276;2023-12-07T07:54:04;2.50;99.90
28336;DHT22;15592;53.656;7.276;2023-12-07T07:56:29;2.50;99.90
28336;DHT22;15592;53.656;7.276;2023-12-07T07:58:55;2.50;99.90
28336;DHT22;15592;53.656;7.276;2023-12-07T08:01:23;2.50;99.90
28336;DHT22;15592;53.656;7.276;2023-12-07T08:03:48;2.50;99.90
28336;DHT22;15592;53.656;7.276;2023-12-07T08:06:14;2.50;99.90
28336;DHT22;15592;53.656;7.276;2023-12-07T08:08:40;2.50;99.90
28336;DHT22;15592;53.656;7.276;2023-12-07T08:11:05;2.60;99.90
28336;DHT22;15592;53.656;7.276;2023-12-07T08:13:31;2.60;99.90
28336;DHT22;15592;53.656;7.276;2023-12-07T08:15:57;2.60;99.90
28336;DHT22;15592;53.656;7.276;2023-12-07T08:18:22;2.60;99.90
28336;DHT22;15592;53.656;7.276;2023-12-07T08:20:48;2.60;99.90
28336;DHT22;15592;53.656;7.276;2023-12-07T08:23:14;2.60;99.90
28336;DHT22;15592;53.656;7.276;2023-12-07T08:25:39;2.60;99.90
28336;DHT22;15592;53.656;7.276;2023-12-07T08:28:05;2.60;99.90
28336;DHT22;15592;53.656;7.276;2023-12-07T08:30:31;2.60;99.90
28336;DHT22;15592;53.656;7.276;2023-12-07T08:32:56;2.60;99.90
28336;DHT22;15592;53.656;7.276;2023-12-07T08:35:22;2.60;99.90
28336;DHT22;15592;53.656;7.276;2023-12-07T08:37:48;2.60;99.90
28336;DHT22;15592;53.656;7.276;2023-12-07T08:40:14;2.60;99.90
28336;DHT22;15592;53.656;7.276;2023-12-07T08:42:43;2.70;99.90
28336;DHT22;15592;53.656;7.276;2023-12-07T08:45:09;2.70;99.90
28336;DHT22;15592;53.656;7.276;2023-12-07T08:47:35;2.70;99.90
28336;DHT22;15592;53.656;7.276;2023-12-07T08:50:01;2.70;99.90
28336;DHT22;15592;53.656;7.276;2023-12-07T08:52:26;2.70;99.90
28336;DHT22;15592;53.656;7.276;2023-12-07T08:54:52;2.70;99.90
28336;DHT22;15592;53.656;7.276;2023-12-07T08:57:18;2.70;99.90
28336;DHT22;15592;53.656;7.276;2023-12-07T08:59:44;2.70;99.90
28336;DHT22;15592;53.656;7.276;2023-12-07T09:02:09;2.70;99.90
28336;DHT22;15592;53.656;7.276;2023-12-07T09:04:35;2.80;99.90
28336;DHT22;15592;53.656;7.276;2023-12-07T09:07:01;2.80;99.90
28336;DHT22;15592;53.656;7.276;2023-12-07T09:09:26;2.80;99.90
28336;DHT22;15592;53.656;7.276;2023-12-07T09:11:52;2.80;99.90
28336;DHT22;15592;53.656;7.276;2023-12-07T09:14:18;2.80;99.90
28336;DHT22;15592;53.656;7.276;2023-12-07T09:16:45;2.80;99.90
28336;DHT22;15592;53.656;7.276;2023-12-07T09:19:11;2.80;99.90
28336;DHT22;15592;53.656;7.276;2023-12-07T09:21:38;2.80;99.90
28336;DHT22;15592;53.656;7.276;2023-12-07T09:24:04;2.80;99.90
28336;DHT22;15592;53.656;7.276;2023-12-07T09:26:31;2.90;99.90
28336;DHT22;15592;53.656;7.276;2023-12-07T09:28:57;2.90;99.90
28336;DHT22;15592;53.656;7.276;2023-12-07T09:31:23;2.90;99.90
28336;DHT22;15592;53.656;7.276;2023-12-07T09:33:48;3.00;99.90
28336;DHT22;15592;53.656;7.276;2023-12-07T09:36:17;3.00;99.90
28336;DHT22;15592;53.656;7.276;2023-12-07T09:38:44;3.00;99.90
28336;DHT22;15592;53.656;7.276;2023-12-07T09:41:10;3.10;99.90
28336;DHT22;15592;53.656;7.276;2023-12-07T09:43:36;3.10;99.90
28336;DHT22;15592;53.656;7.276;2023-12-07T09:46:02;3.10;99.90
28336;DHT22;15592;53.656;7.276;2023-12-07T09:48:27;3.10;99.90
28336;DHT22;15592;53.656;7.276;2023-12-07T09:50:56;3.20;99.90
28336;DHT22;15592;53.656;7.276;2023-12-07T09:53:22;3.10;99.90
28336;DHT22;15592;53.656;7.276;2023-12-07T09:55:48;3.20;99.90
28336;DHT22;15592;53.656;7.276;2023-12-07T09:58:14;3.20;99.90
28336;DHT22;15592;53.656;7.276;2023-12-07T10:00:40;3.20;99.90
28336;DHT22;15592;53.656;7.276;2023-12-07T10:03:06;3.20;99.90
28336;DHT22;15592;53.656;7.276;2023-12-07T10:05:53;3.20;99.90
28336;DHT22;15592;53.656;7.276;2023-12-07T10:08:28;3.20;99.90
28336;DHT22;15592;53.656;7.276;2023-12-07T10:11:02;3.20;99.90
28336;DHT22;15592;53.656;7.276;2023-12-07T10:13:32;3.20;99.90
28336;DHT22;15592;53.656;7.276;2023-12-07T10:18:34;3.20;99.90
28336;DHT22;15592;53.656;7.276;2023-12-07T10:21:00;3.20;99.90
28336;DHT22;15592;53.656;7.276;2023-12-07T10:23:26;3.20;99.90
28336;DHT22;15592;53.656;7.276;2023-12-07T10:25:53;3.10;99.90
28336;DHT22;15592;53.656;7.276;2023-12-07T10:28:18;3.20;99.90
28336;DHT22;15592;53.656;7.276;2023-12-07T10:30:45;3.20;99.90
28336;DHT22;15592;53.656;7.276;2023-12-07T10:33:11;3.20;99.90
28336;DHT22;15592;53.656;7.276;2023-12-07T10:35:41;3.30;99.90
28336;DHT22;15592;53.656;7.276;2023-12-07T10:38:11;3.30;99.90
28336;DHT22;15592;53.656;7.276;2023-12-07T10:40:38;3.30;99.90
28336;DHT22;15592;53.656;7.276;2023-12-07T10:43:07;3.40;99.90
28336;DHT22;15592;53.656;7.276;2023-12-07T10:45:35;3.40;99.90
28336;DHT22;15592;53.656;7.276;2023-12-07T10:48:09;3.50;99.90
28336;DHT22;15592;53.656;7.276;2023-12-07T10:50:37;3.50;99.90
28336;DHT22;15592;53.656;7.276;2023-12-07T10:55:56;3.50;99.90
28336;DHT22;15592;53.656;7.276;2023-12-07T10:58:22;3.50;99.90
28336;DHT22;15592;53.656;7.276;2023-12-07T11:00:53;3.50;99.90
28336;DHT22;15592;53.656;7.276;2023-12-07T11:03:19;3.60;99.90
28336;DHT22;15592;53.656;7.276;2023-12-07T11:05:47;3.60;99.90
28336;DHT22;15592;53.656;7.276;2023-12-07T11:13:29;3.60;99.90
28336;DHT22;15592;53.656;7.276;2023-12-07T11:15:57;3.60;99.90
28336;DHT22;15592;53.656;7.276;2023-12-07T11:18:25;3.60;99.90
28336;DHT22;15592;53.656;7.276;2023-12-07T11:20:53;3.50;99.90
28336;DHT22;15592;53.656;7.276;2023-12-07T11:23:20;3.60;99.90
28336;DHT22;15592;53.656;7.276;2023-12-07T11:25:47;3.60;99.90
28336;DHT22;15592;53.656;7.276;2023-12-07T11:28:14;3.50;99.90
28336;DHT22;15592;53.656;7.276;2023-12-07T11:30:44;3.60;99.90
28336;DHT22;15592;53.656;7.276;2023-12-07T11:33:10;3.60;99.90
28336;DHT22;15592;53.656;7.276;2023-12-07T11:36:09;3.60;99.90
28336;DHT22;15592;53.656;7.276;2023-12-07T11:41:35;3.60;99.90
28336;DHT22;15592;53.656;7.276;2023-12-07T11:44:05;3.60;99.90
28336;DHT22;15592;53.656;7.276;2023-12-07T11:46:31;3.60;99.90
28336;DHT22;15592;53.656;7.276;2023-12-07T11:48:57;3.60;99.90
28336;DHT22;15592;53.656;7.276;2023-12-07T11:51:25;3.60;99.90
28336;DHT22;15592;53.656;7.276;2023-12-07T11:53:50;3.70;99.90
28336;DHT22;15592;53.656;7.276;2023-12-07T11:56:16;3.70;99.90
28336;DHT22;15592;53.656;7.276;2023-12-07T11:58:46;3.70;99.90
28336;DHT22;15592;53.656;7.276;2023-12-07T12:01:12;3.70;99.90
28336;DHT22;15592;53.656;7.276;2023-12-07T12:03:37;3.70;99.90
28336;DHT22;15592;53.656;7.276;2023-12-07T12:06:05;3.70;99.90
28336;DHT22;15592;53.656;7.276;2023-12-07T12:08:33;3.70;99.90
28336;DHT22;15592;53.656;7.276;2023-12-07T12:10:59;3.70;99.90
28336;DHT22;15592;53.656;7.276;2023-12-07T12:13:29;3.70;99.90
28336;DHT22;15592;53.656;7.276;2023-12-07T12:15:56;3.70;99.90
28336;DHT22;15592;53.656;7.276;2023-12-07T12:18:22;3.70;99.90
28336;DHT22;15592;53.656;7.276;2023-12-07T12:20:49;3.70;99.90
28336;DHT22;15592;53.656;7.276;2023-12-07T12:23:15;3.70;99.90
28336;DHT22;15592;53.656;7.276;2023-12-07T12:25:41;3.70;99.90
28336;DHT22;15592;53.656;7.276;2023-12-07T12:28:07;3.80;99.90
28336;DHT22;15592;53.656;7.276;2023-12-07T12:30:33;3.90;99.90
28336;DHT22;15592;53.656;7.276;2023-12-07T12:32:59;4.10;99.90
28336;DHT22;15592;53.656;7.276;2023-12-07T12:35:25;4.10;99.90
28336;DHT22;15592;53.656;7.276;2023-12-07T12:37:51;4.20;99.90
28336;DHT22;15592;53.656;7.276;2023-12-07T12:40:18;4.30;99.90
28336;DHT22;15592;53.656;7.276;2023-12-07T12:42:53;4.30;99.90
28336;DHT22;15592;53.656;7.276;2023-12-07T12:45:19;4.30;99.90
28336;DHT22;15592;53.656;7.276;2023-12-07T12:47:46;4.30;99.90
28336;DHT22;15592;53.656;7.276;2023-12-07T12:50:33;4.30;99.90
28336;DHT22;15592;53.656;7.276;2023-12-07T12:52:59;4.20;99.90
28336;DHT22;15592;53.656;7.276;2023-12-07T12:55:31;4.30;99.90
28336;DHT22;15592;53.656;7.276;2023-12-07T12:57:56;4.30;99.90
28336;DHT22;15592;53.656;7.276;2023-12-07T13:00:24;4.30;99.90
28336;DHT22;15592;53.656;7.276;2023-12-07T13:02:50;4.30;99.90
28336;DHT22;15592;53.656;7.276;2023-12-07T13:05:15;4.30;99.90
28336;DHT22;15592;53.656;7.276;2023-12-07T13:07:44;4.30;99.90
28336;DHT22;15592;53.656;7.276;2023-12-07T13:10:09;4.30;99.90
28336;DHT22;15592;53.656;7.276;2023-12-07T13:12:36;4.30;99.90
28336;DHT22;15592;53.656;7.276;2023-12-07T13:15:01;4.20;99.90
28336;DHT22;15592;53.656;7.276;2023-12-07T13:17:27;4.20;99.90
28336;DHT22;15592;53.656;7.276;2023-12-07T13:19:52;4.20;99.90
28336;DHT22;15592;53.656;7.276;2023-12-07T13:22:19;4.10;99.90
28336;DHT22;15592;53.656;7.276;2023-12-07T13:24:47;4.10;99.90
28336;DHT22;15592;53.656;7.276;2023-12-07T13:27:13;4.00;99.90
28336;DHT22;15592;53.656;7.276;2023-12-07T13:29:41;4.00;99.90
28336;DHT22;15592;53.656;7.276;2023-12-07T13:32:06;4.00;99.90
28336;DHT22;15592;53.656;7.276;2023-12-07T13:34:32;3.90;99.90
28336;DHT22;15592;53.656;7.276;2023-12-07T13:36:58;3.90;99.90
28336;DHT22;15592;53.656;7.276;2023-12-07T13:39:24;3.80;99.90
28336;DHT22;15592;53.656;7.276;2023-12-07T13:41:52;3.80;99.90
28336;DHT22;15592;53.656;7.276;2023-12-07T13:44:17;3.80;99.90
28336;DHT22;15592;53.656;7.276;2023-12-07T13:46:44;3.70;99.90
28336;DHT22;15592;53.656;7.276;2023-12-07T13:49:10;3.80;99.90
28336;DHT22;15592;53.656;7.276;2023-12-07T13:51:39;3.70;99.90
28336;DHT22;15592;53.656;7.276;2023-12-07T13:54:05;3.70;99.90
28336;DHT22;15592;53.656;7.276;2023-12-07T13:56:33;3.70;99.90
28336;DHT22;15592;53.656;7.276;2023-12-07T13:58:59;3.60;99.90
28336;DHT22;15592;53.656;7.276;2023-12-07T14:01:24;3.60;99.90
28336;DHT22;15592;53.656;7.276;2023-12-07T14:03:51;3.60;99.90
28336;DHT22;15592;53.656;7.276;2023-12-07T14:06:24;3.50;99.90
28336;DHT22;15592;53.656;7.276;2023-12-07T14:08:50;3.50;99.90
28336;DHT22;15592;53.656;7.276;2023-12-07T14:11:19;3.40;99.90
28336;DHT22;15592;53.656;7.276;2023-12-07T14:13:45;3.40;99.90
28336;DHT22;15592;53.656;7.276;2023-12-07T14:16:18;3.30;99.90
28336;DHT22;15592;53.656;7.276;2023-12-07T14:18:43;3.30;99.90
28336;DHT22;15592;53.656;7.276;2023-12-07T14:21:09;3.30;99.90
28336;DHT22;15592;53.656;7.276;2023-12-07T14:23:34;3.20;99.90
28336;DHT22;15592;53.656;7.276;2023-12-07T14:26:01;3.20;99.90
28336;DHT22;15592;53.656;7.276;2023-12-07T14:28:27;3.10;99.90
28336;DHT22;15592;53.656;7.276;2023-12-07T14:30:56;3.10;99.90
28336;DHT22;15592;53.656;7.276;2023-12-07T14:33:25;3.00;99.90
28336;DHT22;15592;53.656;7.276;2023-12-07T14:35:50;3.00;99.90
28336;DHT22;15592;53.656;7.276;2023-12-07T14:38:16;2.90;99.90
28336;DHT22;15592;53.656;7.276;2023-12-07T14:40:42;2.90;99.90
28336;DHT22;15592;53.656;7.276;2023-12-07T14:43:08;2.80;99.90
28336;DHT22;15592;53.656;7.276;2023-12-07T14:45:33;2.80;99.90
28336;DHT22;15592;53.656;7.276;2023-12-07T14:47:59;2.70;99.90
28336;DHT22;15592;53.656;7.276;2023-12-07T14:50:24;2.70;99.90
28336;DHT22;15592;53.656;7.276;2023-12-07T14:52:53;2.60;99.90
28336;DHT22;15592;53.656;7.276;2023-12-07T14:55:18;2.60;99.90
28336;DHT22;15592;53.656;7.276;2023-12-07T15:02:47;2.40;99.90
28336;DHT22;15592;53.656;7.276;2023-12-07T15:05:13;2.40;99.90
28336;DHT22;15592;53.656;7.276;2023-12-07T15:07:38;2.30;99.90
28336;DHT22;15592;53.656;7.276;2023-12-07T15:10:05;2.30;99.90
28336;DHT22;15592;53.656;7.276;2023-12-07T15:12:30;2.30;99.90
28336;DHT22;15592;53.656;7.276;2023-12-07T15:14:56;2.30;99.90
28336;DHT22;15592;53.656;7.276;2023-12-07T15:17:22;2.20;99.90
28336;DHT22;15592;53.656;7.276;2023-12-07T15:19:47;2.20;99.90
28336;DHT22;15592;53.656;7.276;2023-12-07T15:22:13;2.20;99.90
28336;DHT22;15592;53.656;7.276;2023-12-07T15:24:38;2.20;99.90
28336;DHT22;15592;53.656;7.276;2023-12-07T15:27:04;2.10;99.90
28336;DHT22;15592;53.656;7.276;2023-12-07T15:29:30;2.10;99.90
28336;DHT22;15592;53.656;7.276;2023-12-07T15:31:56;2.00;99.90
28336;DHT22;15592;53.656;7.276;2023-12-07T15:34:21;1.90;99.90
28336;DHT22;15592;53.656;7.276;2023-12-07T15:36:47;1.90;99.90
28336;DHT22;15592;53.656;7.276;2023-12-07T15:39:12;1.80;99.90
28336;DHT22;15592;53.656;7.276;2023-12-07T15:41:38;1.80;99.90
28336;DHT22;15592;53.656;7.276;2023-12-07T15:44:04;1.70;99.90
28336;DHT22;15592;53.656;7.276;2023-12-07T15:46:29;1.60;99.90
28336;DHT22;15592;53.656;7.276;2023-12-07T15:48:55;1.50;99.90
28336;DHT22;15592;53.656;7.276;2023-12-07T15:51:21;1.50;99.90
28336;DHT22;15592;53.656;7.276;2023-12-07T15:53:46;1.40;99.90
28336;DHT22;15592;53.656;7.276;2023-12-07T15:56:12;1.40;99.90
28336;DHT22;15592;53.656;7.276;2023-12-07T15:58:38;1.30;99.90